sensor_id;sensor_type;location;lat;lon;timestamp;P1;durP1;ratioP1;P2;durP2;ratioP2
17725;SDS011;8983;53.156;17.960;2024-03-22T00:01:09;24.00;;;13.20;;
17725;SDS011;8983;53.156;17.960;2024-03-22T00:03:37;25.67;;;13.40;;
17725;SDS011;8983;53.156;17.960;2024-03-22T00:06:04;32.13;;;14.23;;
17725;SDS011;8983;53.156;17.960;2024-03-22T00:08:32;28.37;;;15.20;;
17725;SDS011;8983;53.156;17.960;2024-03-22T00:10:58;21.10;;;13.40;;
17725;SDS011;8983;53.156;17.960;2024-03-22T00:13:26;25.13;;;14.87;;
17725;SDS011;8983;53.156;17.960;2024-03-22T00:15:52;27.50;;;14.90;;
17725;SDS011;8983;53.156;17.960;2024-03-22T00:18:20;27.60;;;14.50;;
17725;SDS011;8983;53.156;17.960;2024-03-22T00:20:46;26.93;;;13.87;;
17725;SDS011;8983;53.156;17.960;2024-03-22T00:23:15;28.47;;;15.00;;
17725;SDS011;8983;53.156;17.960;2024-03-22T00:25:41;29.27;;;14.20;;
17725;SDS011;8983;53.156;17.960;2024-03-22T00:28:08;25.63;;;14.10;;
17725;SDS011;8983;53.156;17.960;2024-03-22T00:30:34;26.20;;;14.27;;
17725;SDS011;8983;53.156;17.960;2024-03-22T00:33:02;29.87;;;14.23;;
17725;SDS011;8983;53.156;17.960;2024-03-22T00:35:29;24.77;;;13.60;;
17725;SDS011;8983;53.156;17.960;2024-03-22T00:37:56;25.93;;;13.63;;
17725;SDS011;8983;53.156;17.960;2024-03-22T00:40:23;27.30;;;13.93;;
17725;SDS011;8983;53.156;17.960;2024-03-22T00:42:50;28.53;;;14.27;;
17725;SDS011;8983;53.156;17.960;2024-03-22T00:45:17;27.10;;;13.20;;
17725;SDS011;8983;53.156;17.960;2024-03-22T00:47:44;23.27;;;13.60;;
17725;SDS011;8983;53.156;17.960;2024-03-22T00:50:10;35.10;;;14.70;;
17725;SDS011;8983;53.156;17.960;2024-03-22T00:52:38;28.10;;;13.87;;
17725;SDS011;8983;53.156;17.960;2024-03-22T00:55:04;32.83;;;14.53;;
17725;SDS011;8983;53.156;17.960;2024-03-22T00:57:33;30.40;;;14.70;;
17725;SDS011;8983;53.156;17.960;2024-03-22T00:59:59;28.50;;;14.13;;
17725;SDS011;8983;53.156;17.960;2024-03-22T01:02:27;30.30;;;14.33;;
17725;SDS011;8983;53.156;17.960;2024-03-22T01:04:53;33.13;;;15.17;;
17725;SDS011;8983;53.156;17.960;2024-03-22T01:07:20;31.70;;;15.37;;
17725;SDS011;8983;53.156;17.960;2024-03-22T01:09:46;32.67;;;15.70;;
17725;SDS011;8983;53.156;17.960;2024-03-22T01:12:14;25.77;;;14.33;;
17725;SDS011;8983;53.156;17.960;2024-03-22T01:14:41;27.00;;;14.23;;
17725;SDS011;8983;53.156;17.960;2024-03-22T01:17:09;34.20;;;16.27;;
17725;SDS011;8983;53.156;17.960;2024-03-22T01:19:35;30.57;;;15.17;;
17725;SDS011;8983;53.156;17.960;2024-03-22T01:22:02;33.20;;;16.07;;
17725;SDS011;8983;53.156;17.960;2024-03-22T01:24:28;29.57;;;15.50;;
17725;SDS011;8983;53.156;17.960;2024-03-22T01:26:55;35.37;;;16.07;;
17725;SDS011;8983;53.156;17.960;2024-03-22T01:29:21;34.97;;;17.03;;
17725;SDS011;8983;53.156;17.960;2024-03-22T01:31:50;42.13;;;16.77;;
17725;SDS011;8983;53.156;17.960;2024-03-22T01:34:16;41.70;;;17.03;;
17725;SDS011;8983;53.156;17.960;2024-03-22T01:36:43;41.77;;;16.90;;
17725;SDS011;8983;53.156;17.960;2024-03-22T01:39:10;36.33;;;16.73;;
17725;SDS011;8983;53.156;17.960;2024-03-22T01:41:39;35.57;;;16.53;;
17725;SDS011;8983;53.156;17.960;2024-03-22T01:44:06;40.80;;;18.20;;
17725;SDS011;8983;53.156;17.960;2024-03-22T01:46:33;41.47;;;18.27;;
17725;SDS011;8983;53.156;17.960;2024-03-22T01:49:01;35.07;;;17.10;;
17725;SDS011;8983;53.156;17.960;2024-03-22T01:51:28;38.97;;;17.80;;
17725;SDS011;8983;53.156;17.960;2024-03-22T01:53:55;35.23;;;17.60;;
17725;SDS011;8983;53.156;17.960;2024-03-22T01:56:23;45.30;;;18.67;;
17725;SDS011;8983;53.156;17.960;2024-03-22T01:58:49;46.80;;;18.40;;
17725;SDS011;8983;53.156;17.960;2024-03-22T02:01:17;41.70;;;17.63;;
17725;SDS011;8983;53.156;17.960;2024-03-22T02:03:44;41.47;;;19.30;;
17725;SDS011;8983;53.156;17.960;2024-03-22T02:06:12;42.47;;;18.30;;
17725;SDS011;8983;53.156;17.960;2024-03-22T02:08:39;45.33;;;18.83;;
17725;SDS011;8983;53.156;17.960;2024-03-22T02:11:09;44.53;;;17.53;;
17725;SDS011;8983;53.156;17.960;2024-03-22T02:13:36;38.23;;;18.17;;
17725;SDS011;8983;53.156;17.960;2024-03-22T02:16:03;35.93;;;17.00;;
17725;SDS011;8983;53.156;17.960;2024-03-22T02:18:29;39.93;;;17.03;;
17725;SDS011;8983;53.156;17.960;2024-03-22T02:20:56;30.27;;;15.60;;
17725;SDS011;8983;53.156;17.960;2024-03-22T02:23:32;38.30;;;17.00;;
17725;SDS011;8983;53.156;17.960;2024-03-22T02:26:00;37.40;;;17.70;;
17725;SDS011;8983;53.156;17.960;2024-03-22T02:28:26;31.63;;;14.70;;
17725;SDS011;8983;53.156;17.960;2024-03-22T02:30:53;36.43;;;16.17;;
17725;SDS011;8983;53.156;17.960;2024-03-22T02:33:20;29.63;;;15.10;;
17725;SDS011;8983;53.156;17.960;2024-03-22T02:35:48;34.20;;;14.53;;
17725;SDS011;8983;53.156;17.960;2024-03-22T02:38:14;34.97;;;16.23;;
17725;SDS011;8983;53.156;17.960;2024-03-22T02:40:43;34.43;;;16.30;;
17725;SDS011;8983;53.156;17.960;2024-03-22T02:43:09;33.17;;;16.63;;
17725;SDS011;8983;53.156;17.960;2024-03-22T02:45:37;31.77;;;16.27;;
17725;SDS011;8983;53.156;17.960;2024-03-22T02:48:03;34.70;;;15.57;;
17725;SDS011;8983;53.156;17.960;2024-03-22T02:50:32;31.87;;;15.40;;
17725;SDS011;8983;53.156;17.960;2024-03-22T02:52:58;35.20;;;15.30;;
17725;SDS011;8983;53.156;17.960;2024-03-22T02:55:25;34.97;;;14.83;;
17725;SDS011;8983;53.156;17.960;2024-03-22T02:57:53;34.67;;;15.23;;
17725;SDS011;8983;53.156;17.960;2024-03-22T03:00:22;32.70;;;15.17;;
17725;SDS011;8983;53.156;17.960;2024-03-22T03:02:48;39.47;;;16.63;;
17725;SDS011;8983;53.156;17.960;2024-03-22T03:05:16;34.73;;;15.50;;
17725;SDS011;8983;53.156;17.960;2024-03-22T03:07:42;32.00;;;14.97;;
17725;SDS011;8983;53.156;17.960;2024-03-22T03:10:10;39.50;;;16.23;;
17725;SDS011;8983;53.156;17.960;2024-03-22T03:12:36;39.23;;;17.37;;
17725;SDS011;8983;53.156;17.960;2024-03-22T03:15:05;41.33;;;17.97;;
17725;SDS011;8983;53.156;17.960;2024-03-22T03:17:32;47.70;;;18.40;;
17725;SDS011;8983;53.156;17.960;2024-03-22T03:19:59;39.13;;;16.30;;
17725;SDS011;8983;53.156;17.960;2024-03-22T03:22:26;38.73;;;18.27;;
17725;SDS011;8983;53.156;17.960;2024-03-22T03:24:53;41.70;;;18.63;;
17725;SDS011;8983;53.156;17.960;2024-03-22T03:27:19;47.03;;;18.70;;
17725;SDS011;8983;53.156;17.960;2024-03-22T03:29:46;51.20;;;18.67;;
17725;SDS011;8983;53.156;17.960;2024-03-22T03:32:14;49.30;;;18.93;;
17725;SDS011;8983;53.156;17.960;2024-03-22T03:34:41;38.70;;;16.80;;
17725;SDS011;8983;53.156;17.960;2024-03-22T03:37:07;39.37;;;18.40;;
17725;SDS011;8983;53.156;17.960;2024-03-22T03:39:34;39.80;;;17.87;;
17725;SDS011;8983;53.156;17.960;2024-03-22T03:42:00;37.90;;;16.80;;
17725;SDS011;8983;53.156;17.960;2024-03-22T03:44:28;35.93;;;16.63;;
17725;SDS011;8983;53.156;17.960;2024-03-22T03:46:54;36.90;;;17.03;;
17725;SDS011;8983;53.156;17.960;2024-03-22T03:49:23;28.53;;;15.23;;
17725;SDS011;8983;53.156;17.960;2024-03-22T03:51:49;29.13;;;15.47;;
17725;SDS011;8983;53.156;17.960;2024-03-22T03:54:16;31.70;;;15.60;;
17725;SDS011;8983;53.156;17.960;2024-03-22T03:56:42;34.27;;;15.20;;
17725;SDS011;8983;53.156;17.960;2024-03-22T03:59:10;34.90;;;15.53;;
17725;SDS011;8983;53.156;17.960;2024-03-22T04:01:36;30.13;;;14.83;;
17725;SDS011;8983;53.156;17.960;2024-03-22T04:04:03;31.07;;;15.30;;
17725;SDS011;8983;53.156;17.960;2024-03-22T04:06:31;33.83;;;15.33;;
17725;SDS011;8983;53.156;17.960;2024-03-22T04:08:59;33.87;;;15.80;;
17725;SDS011;8983;53.156;17.960;2024-03-22T04:11:28;33.30;;;14.43;;
17725;SDS011;8983;53.156;17.960;2024-03-22T04:13:54;31.87;;;14.33;;
17725;SDS011;8983;53.156;17.960;2024-03-22T04:16:22;25.20;;;13.97;;
17725;SDS011;8983;53.156;17.960;2024-03-22T04:18:48;32.73;;;14.00;;
17725;SDS011;8983;53.156;17.960;2024-03-22T04:21:16;30.67;;;14.07;;
17725;SDS011;8983;53.156;17.960;2024-03-22T04:23:43;27.83;;;13.37;;
17725;SDS011;8983;53.156;17.960;2024-03-22T04:26:11;28.07;;;13.80;;
17725;SDS011;8983;53.156;17.960;2024-03-22T04:28:37;24.83;;;12.70;;
17725;SDS011;8983;53.156;17.960;2024-03-22T04:31:05;26.50;;;14.47;;
17725;SDS011;8983;53.156;17.960;2024-03-22T04:33:33;29.43;;;14.23;;
17725;SDS011;8983;53.156;17.960;2024-03-22T04:36:01;26.53;;;13.00;;
17725;SDS011;8983;53.156;17.960;2024-03-22T04:38:28;25.13;;;12.53;;
17725;SDS011;8983;53.156;17.960;2024-03-22T04:40:57;25.53;;;11.73;;
17725;SDS011;8983;53.156;17.960;2024-03-22T04:43:25;27.87;;;13.13;;
17725;SDS011;8983;53.156;17.960;2024-03-22T04:45:52;27.87;;;12.80;;
17725;SDS011;8983;53.156;17.960;2024-03-22T04:48:20;31.33;;;13.73;;
17725;SDS011;8983;53.156;17.960;2024-03-22T04:50:47;29.27;;;12.73;;
17725;SDS011;8983;53.156;17.960;2024-03-22T04:53:15;23.37;;;12.00;;
17725;SDS011;8983;53.156;17.960;2024-03-22T04:55:42;24.03;;;12.00;;
17725;SDS011;8983;53.156;17.960;2024-03-22T04:58:13;23.27;;;12.00;;
17725;SDS011;8983;53.156;17.960;2024-03-22T05:00:39;25.50;;;11.90;;
17725;SDS011;8983;53.156;17.960;2024-03-22T05:03:07;28.80;;;11.87;;
17725;SDS011;8983;53.156;17.960;2024-03-22T05:05:33;23.23;;;12.03;;
17725;SDS011;8983;53.156;17.960;2024-03-22T05:08:02;22.63;;;10.00;;
17725;SDS011;8983;53.156;17.960;2024-03-22T05:10:29;20.00;;;11.00;;
17725;SDS011;8983;53.156;17.960;2024-03-22T05:12:57;22.30;;;11.03;;
17725;SDS011;8983;53.156;17.960;2024-03-22T05:15:25;21.23;;;11.60;;
17725;SDS011;8983;53.156;17.960;2024-03-22T05:17:52;22.53;;;10.67;;
17725;SDS011;8983;53.156;17.960;2024-03-22T05:20:19;23.43;;;10.43;;
17725;SDS011;8983;53.156;17.960;2024-03-22T05:22:46;23.50;;;10.40;;
17725;SDS011;8983;53.156;17.960;2024-03-22T05:25:14;20.87;;;10.17;;
17725;SDS011;8983;53.156;17.960;2024-03-22T05:27:40;19.53;;;10.53;;
17725;SDS011;8983;53.156;17.960;2024-03-22T05:30:08;22.27;;;10.30;;
17725;SDS011;8983;53.156;17.960;2024-03-22T05:32:37;19.87;;;11.07;;
17725;SDS011;8983;53.156;17.960;2024-03-22T05:35:05;23.87;;;10.87;;
17725;SDS011;8983;53.156;17.960;2024-03-22T05:37:32;19.87;;;9.87;;
17725;SDS011;8983;53.156;17.960;2024-03-22T05:40:00;20.93;;;10.07;;
17725;SDS011;8983;53.156;17.960;2024-03-22T05:42:27;17.43;;;9.63;;
17725;SDS011;8983;53.156;17.960;2024-03-22T05:44:54;22.17;;;10.80;;
17725;SDS011;8983;53.156;17.960;2024-03-22T05:47:21;20.80;;;10.07;;
17725;SDS011;8983;53.156;17.960;2024-03-22T05:49:49;20.20;;;9.37;;
17725;SDS011;8983;53.156;17.960;2024-03-22T05:52:15;16.83;;;9.37;;
17725;SDS011;8983;53.156;17.960;2024-03-22T05:54:42;17.27;;;8.90;;
17725;SDS011;8983;53.156;17.960;2024-03-22T05:57:08;19.87;;;9.00;;
17725;SDS011;8983;53.156;17.960;2024-03-22T05:59:36;16.63;;;8.20;;
17725;SDS011;8983;53.156;17.960;2024-03-22T06:02:02;14.50;;;7.67;;
17725;SDS011;8983;53.156;17.960;2024-03-22T06:04:29;19.73;;;8.13;;
17725;SDS011;8983;53.156;17.960;2024-03-22T06:06:57;17.57;;;9.57;;
17725;SDS011;8983;53.156;17.960;2024-03-22T06:09:25;23.47;;;10.17;;
17725;SDS011;8983;53.156;17.960;2024-03-22T06:12:02;21.87;;;11.97;;
17725;SDS011;8983;53.156;17.960;2024-03-22T06:14:30;21.00;;;10.53;;
17725;SDS011;8983;53.156;17.960;2024-03-22T06:16:56;22.33;;;11.87;;
17725;SDS011;8983;53.156;17.960;2024-03-22T06:19:23;18.93;;;9.57;;
17725;SDS011;8983;53.156;17.960;2024-03-22T06:21:50;18.27;;;9.57;;
17725;SDS011;8983;53.156;17.960;2024-03-22T06:24:19;20.93;;;9.50;;
17725;SDS011;8983;53.156;17.960;2024-03-22T06:26:45;23.47;;;9.70;;
17725;SDS011;8983;53.156;17.960;2024-03-22T06:29:14;23.17;;;10.07;;
17725;SDS011;8983;53.156;17.960;2024-03-22T06:31:41;19.13;;;9.20;;
17725;SDS011;8983;53.156;17.960;2024-03-22T06:34:09;22.87;;;10.40;;
17725;SDS011;8983;53.156;17.960;2024-03-22T06:36:35;23.70;;;9.90;;
17725;SDS011;8983;53.156;17.960;2024-03-22T06:39:03;26.03;;;10.87;;
17725;SDS011;8983;53.156;17.960;2024-03-22T06:41:33;20.47;;;10.57;;
17725;SDS011;8983;53.156;17.960;2024-03-22T06:44:01;16.03;;;9.73;;
17725;SDS011;8983;53.156;17.960;2024-03-22T06:46:27;19.00;;;9.67;;
17725;SDS011;8983;53.156;17.960;2024-03-22T06:48:54;19.83;;;9.73;;
17725;SDS011;8983;53.156;17.960;2024-03-22T06:51:20;19.90;;;9.50;;
17725;SDS011;8983;53.156;17.960;2024-03-22T06:53:48;19.87;;;9.57;;
17725;SDS011;8983;53.156;17.960;2024-03-22T06:56:14;17.00;;;9.33;;
17725;SDS011;8983;53.156;17.960;2024-03-22T06:58:43;22.77;;;9.73;;
17725;SDS011;8983;53.156;17.960;2024-03-22T07:01:09;18.97;;;9.97;;
17725;SDS011;8983;53.156;17.960;2024-03-22T07:03:37;20.87;;;10.00;;
17725;SDS011;8983;53.156;17.960;2024-03-22T07:06:03;21.03;;;10.27;;
17725;SDS011;8983;53.156;17.960;2024-03-22T07:08:31;19.07;;;9.83;;
17725;SDS011;8983;53.156;17.960;2024-03-22T07:10:57;21.80;;;10.17;;
17725;SDS011;8983;53.156;17.960;2024-03-22T07:13:25;21.23;;;10.40;;
17725;SDS011;8983;53.156;17.960;2024-03-22T07:15:52;18.67;;;9.23;;
17725;SDS011;8983;53.156;17.960;2024-03-22T07:18:20;19.30;;;9.13;;
17725;SDS011;8983;53.156;17.960;2024-03-22T07:20:46;19.70;;;10.03;;
17725;SDS011;8983;53.156;17.960;2024-03-22T07:23:14;19.70;;;9.67;;
17725;SDS011;8983;53.156;17.960;2024-03-22T07:25:40;18.63;;;9.63;;
17725;SDS011;8983;53.156;17.960;2024-03-22T07:28:11;18.77;;;8.80;;
17725;SDS011;8983;53.156;17.960;2024-03-22T07:30:37;21.40;;;9.23;;
17725;SDS011;8983;53.156;17.960;2024-03-22T07:33:06;20.13;;;9.73;;
17725;SDS011;8983;53.156;17.960;2024-03-22T07:35:34;21.40;;;10.53;;
17725;SDS011;8983;53.156;17.960;2024-03-22T07:38:01;20.40;;;9.60;;
17725;SDS011;8983;53.156;17.960;2024-03-22T07:40:28;14.57;;;8.83;;
17725;SDS011;8983;53.156;17.960;2024-03-22T07:42:55;17.83;;;9.10;;
17725;SDS011;8983;53.156;17.960;2024-03-22T07:45:21;18.60;;;9.07;;
17725;SDS011;8983;53.156;17.960;2024-03-22T07:47:49;18.70;;;9.57;;
17725;SDS011;8983;53.156;17.960;2024-03-22T07:50:16;17.30;;;9.17;;
17725;SDS011;8983;53.156;17.960;2024-03-22T07:52:44;18.23;;;9.77;;
17725;SDS011;8983;53.156;17.960;2024-03-22T07:55:10;22.47;;;10.80;;
17725;SDS011;8983;53.156;17.960;2024-03-22T07:57:37;18.43;;;10.10;;
17725;SDS011;8983;53.156;17.960;2024-03-22T08:00:04;19.70;;;9.43;;
17725;SDS011;8983;53.156;17.960;2024-03-22T08:02:32;19.17;;;9.63;;
17725;SDS011;8983;53.156;17.960;2024-03-22T08:04:58;16.13;;;8.87;;
17725;SDS011;8983;53.156;17.960;2024-03-22T08:07:28;19.87;;;9.93;;
17725;SDS011;8983;53.156;17.960;2024-03-22T08:09:54;17.13;;;9.67;;
17725;SDS011;8983;53.156;17.960;2024-03-22T08:12:24;22.17;;;10.80;;
17725;SDS011;8983;53.156;17.960;2024-03-22T08:14:51;19.77;;;9.73;;
17725;SDS011;8983;53.156;17.960;2024-03-22T08:17:18;19.90;;;9.70;;
17725;SDS011;8983;53.156;17.960;2024-03-22T08:19:44;19.83;;;9.20;;
17725;SDS011;8983;53.156;17.960;2024-03-22T08:22:12;16.30;;;9.60;;
17725;SDS011;8983;53.156;17.960;2024-03-22T08:24:40;19.17;;;10.20;;
17725;SDS011;8983;53.156;17.960;2024-03-22T08:27:07;19.37;;;9.37;;
17725;SDS011;8983;53.156;17.960;2024-03-22T08:29:34;18.63;;;9.10;;
17725;SDS011;8983;53.156;17.960;2024-03-22T08:32:01;14.63;;;8.73;;
17725;SDS011;8983;53.156;17.960;2024-03-22T08:34:29;18.33;;;9.50;;
17725;SDS011;8983;53.156;17.960;2024-03-22T08:36:57;17.00;;;8.93;;
17725;SDS011;8983;53.156;17.960;2024-03-22T08:39:24;19.00;;;10.37;;
17725;SDS011;8983;53.156;17.960;2024-03-22T08:41:53;21.10;;;10.77;;
17725;SDS011;8983;53.156;17.960;2024-03-22T08:44:20;19.10;;;10.30;;
17725;SDS011;8983;53.156;17.960;2024-03-22T08:46:47;22.40;;;11.27;;
17725;SDS011;8983;53.156;17.960;2024-03-22T08:49:15;18.37;;;9.50;;
17725;SDS011;8983;53.156;17.960;2024-03-22T08:51:44;23.63;;;10.37;;
17725;SDS011;8983;53.156;17.960;2024-03-22T08:54:11;18.23;;;10.40;;
17725;SDS011;8983;53.156;17.960;2024-03-22T08:56:38;20.20;;;11.30;;
17725;SDS011;8983;53.156;17.960;2024-03-22T08:59:06;21.13;;;10.70;;
17725;SDS011;8983;53.156;17.960;2024-03-22T09:01:33;25.37;;;11.40;;
17725;SDS011;8983;53.156;17.960;2024-03-22T09:04:00;21.27;;;10.43;;
17725;SDS011;8983;53.156;17.960;2024-03-22T09:06:28;22.97;;;11.23;;
17725;SDS011;8983;53.156;17.960;2024-03-22T09:08:54;21.93;;;12.03;;
17725;SDS011;8983;53.156;17.960;2024-03-22T09:11:23;18.40;;;10.87;;
17725;SDS011;8983;53.156;17.960;2024-03-22T09:13:51;16.83;;;8.47;;
17725;SDS011;8983;53.156;17.960;2024-03-22T09:16:20;22.60;;;11.47;;
17725;SDS011;8983;53.156;17.960;2024-03-22T09:18:46;17.93;;;7.50;;
17725;SDS011;8983;53.156;17.960;2024-03-22T09:21:13;22.60;;;11.33;;
17725;SDS011;8983;53.156;17.960;2024-03-22T09:23:41;20.60;;;9.03;;
17725;SDS011;8983;53.156;17.960;2024-03-22T09:26:07;22.70;;;12.17;;
17725;SDS011;8983;53.156;17.960;2024-03-22T09:28:34;24.13;;;12.57;;
17725;SDS011;8983;53.156;17.960;2024-03-22T09:31:03;20.93;;;11.03;;
17725;SDS011;8983;53.156;17.960;2024-03-22T09:33:32;12.07;;;7.03;;
17725;SDS011;8983;53.156;17.960;2024-03-22T09:35:58;22.73;;;12.63;;
17725;SDS011;8983;53.156;17.960;2024-03-22T09:38:26;20.70;;;11.13;;
17725;SDS011;8983;53.156;17.960;2024-03-22T09:40:52;26.33;;;12.77;;
17725;SDS011;8983;53.156;17.960;2024-03-22T09:43:20;23.60;;;11.33;;
17725;SDS011;8983;53.156;17.960;2024-03-22T09:45:47;19.03;;;9.93;;
17725;SDS011;8983;53.156;17.960;2024-03-22T09:48:16;24.67;;;12.23;;
17725;SDS011;8983;53.156;17.960;2024-03-22T09:50:44;27.87;;;13.13;;
17725;SDS011;8983;53.156;17.960;2024-03-22T09:53:13;28.03;;;13.40;;
17725;SDS011;8983;53.156;17.960;2024-03-22T09:55:43;27.67;;;12.90;;
17725;SDS011;8983;53.156;17.960;2024-03-22T09:58:11;25.70;;;12.70;;
17725;SDS011;8983;53.156;17.960;2024-03-22T10:00:38;24.37;;;12.37;;
17725;SDS011;8983;53.156;17.960;2024-03-22T10:03:05;23.70;;;13.13;;
17725;SDS011;8983;53.156;17.960;2024-03-22T10:05:33;30.50;;;14.47;;
17725;SDS011;8983;53.156;17.960;2024-03-22T10:08:02;21.33;;;12.90;;
17725;SDS011;8983;53.156;17.960;2024-03-22T10:10:28;23.23;;;12.40;;
17725;SDS011;8983;53.156;17.960;2024-03-22T10:12:56;20.17;;;11.50;;
17725;SDS011;8983;53.156;17.960;2024-03-22T10:15:23;18.47;;;11.00;;
17725;SDS011;8983;53.156;17.960;2024-03-22T10:17:51;25.00;;;12.17;;
17725;SDS011;8983;53.156;17.960;2024-03-22T10:20:21;19.97;;;11.87;;
17725;SDS011;8983;53.156;17.960;2024-03-22T10:22:49;20.03;;;11.43;;
17725;SDS011;8983;53.156;17.960;2024-03-22T10:25:21;22.33;;;12.30;;
17725;SDS011;8983;53.156;17.960;2024-03-22T10:27:49;22.10;;;12.53;;
17725;SDS011;8983;53.156;17.960;2024-03-22T10:30:16;24.17;;;13.10;;
17725;SDS011;8983;53.156;17.960;2024-03-22T10:32:43;22.47;;;11.17;;
17725;SDS011;8983;53.156;17.960;2024-03-22T10:35:11;22.63;;;11.97;;
17725;SDS011;8983;53.156;17.960;2024-03-22T10:37:39;21.20;;;11.77;;
17725;SDS011;8983;53.156;17.960;2024-03-22T10:40:06;23.87;;;12.07;;
17725;SDS011;8983;53.156;17.960;2024-03-22T10:42:37;26.50;;;13.77;;
17725;SDS011;8983;53.156;17.960;2024-03-22T10:45:04;25.60;;;13.07;;
17725;SDS011;8983;53.156;17.960;2024-03-22T10:47:33;21.93;;;10.77;;
17725;SDS011;8983;53.156;17.960;2024-03-22T10:50:04;28.43;;;14.00;;
17725;SDS011;8983;53.156;17.960;2024-03-22T10:52:33;23.13;;;11.93;;
17725;SDS011;8983;53.156;17.960;2024-03-22T10:55:03;19.80;;;9.50;;
17725;SDS011;8983;53.156;17.960;2024-03-22T10:57:33;23.30;;;12.37;;
17725;SDS011;8983;53.156;17.960;2024-03-22T11:00:07;14.43;;;7.60;;
17725;SDS011;8983;53.156;17.960;2024-03-22T11:02:36;16.87;;;9.43;;
17725;SDS011;8983;53.156;17.960;2024-03-22T11:05:03;20.47;;;11.37;;
17725;SDS011;8983;53.156;17.960;2024-03-22T11:07:30;25.23;;;12.07;;
17725;SDS011;8983;53.156;17.960;2024-03-22T11:09:57;24.53;;;11.83;;
17725;SDS011;8983;53.156;17.960;2024-03-22T11:12:25;22.43;;;11.23;;
17725;SDS011;8983;53.156;17.960;2024-03-22T11:14:52;18.20;;;10.40;;
17725;SDS011;8983;53.156;17.960;2024-03-22T11:17:21;23.83;;;12.10;;
17725;SDS011;8983;53.156;17.960;2024-03-22T11:19:50;20.20;;;11.37;;
17725;SDS011;8983;53.156;17.960;2024-03-22T11:22:17;26.07;;;12.37;;
17725;SDS011;8983;53.156;17.960;2024-03-22T11:24:44;25.00;;;11.37;;
17725;SDS011;8983;53.156;17.960;2024-03-22T11:27:11;21.23;;;10.97;;
17725;SDS011;8983;53.156;17.960;2024-03-22T11:29:37;18.67;;;9.90;;
17725;SDS011;8983;53.156;17.960;2024-03-22T11:32:07;19.97;;;12.07;;
17725;SDS011;8983;53.156;17.960;2024-03-22T11:34:35;24.80;;;12.17;;
17725;SDS011;8983;53.156;17.960;2024-03-22T11:37:03;22.83;;;10.97;;
17725;SDS011;8983;53.156;17.960;2024-03-22T11:39:30;18.40;;;8.43;;
17725;SDS011;8983;53.156;17.960;2024-03-22T11:41:58;24.37;;;11.67;;
17725;SDS011;8983;53.156;17.960;2024-03-22T11:44:24;22.50;;;11.83;;
17725;SDS011;8983;53.156;17.960;2024-03-22T11:46:52;25.37;;;12.67;;
17725;SDS011;8983;53.156;17.960;2024-03-22T11:49:18;18.90;;;11.10;;
17725;SDS011;8983;53.156;17.960;2024-03-22T11:51:47;28.50;;;14.40;;
17725;SDS011;8983;53.156;17.960;2024-03-22T11:54:13;27.23;;;13.17;;
17725;SDS011;8983;53.156;17.960;2024-03-22T11:56:41;30.40;;;13.80;;
17725;SDS011;8983;53.156;17.960;2024-03-22T11:59:07;25.07;;;13.20;;
17725;SDS011;8983;53.156;17.960;2024-03-22T12:01:34;26.73;;;13.93;;
17725;SDS011;8983;53.156;17.960;2024-03-22T12:04:00;22.10;;;12.77;;
17725;SDS011;8983;53.156;17.960;2024-03-22T12:06:28;17.67;;;9.20;;
17725;SDS011;8983;53.156;17.960;2024-03-22T12:08:55;25.93;;;13.20;;
17725;SDS011;8983;53.156;17.960;2024-03-22T12:11:23;27.50;;;14.13;;
17725;SDS011;8983;53.156;17.960;2024-03-22T12:13:49;25.93;;;12.73;;
17725;SDS011;8983;53.156;17.960;2024-03-22T12:16:17;30.27;;;15.03;;
17725;SDS011;8983;53.156;17.960;2024-03-22T12:18:44;33.30;;;14.63;;
17725;SDS011;8983;53.156;17.960;2024-03-22T12:21:12;26.97;;;13.37;;
17725;SDS011;8983;53.156;17.960;2024-03-22T12:23:38;24.33;;;11.27;;
17725;SDS011;8983;53.156;17.960;2024-03-22T12:26:07;30.50;;;13.57;;
17725;SDS011;8983;53.156;17.960;2024-03-22T12:28:33;27.17;;;13.77;;
17725;SDS011;8983;53.156;17.960;2024-03-22T12:31:00;28.37;;;14.70;;
17725;SDS011;8983;53.156;17.960;2024-03-22T12:33:26;28.47;;;14.73;;
17725;SDS011;8983;53.156;17.960;2024-03-22T12:35:54;28.93;;;14.47;;
17725;SDS011;8983;53.156;17.960;2024-03-22T12:38:20;16.70;;;9.50;;
17725;SDS011;8983;53.156;17.960;2024-03-22T12:40:48;31.80;;;15.47;;
17725;SDS011;8983;53.156;17.960;2024-03-22T12:43:16;31.77;;;13.83;;
17725;SDS011;8983;53.156;17.960;2024-03-22T12:45:44;29.50;;;13.73;;
17725;SDS011;8983;53.156;17.960;2024-03-22T12:48:10;29.27;;;12.83;;
17725;SDS011;8983;53.156;17.960;2024-03-22T12:50:37;23.47;;;12.03;;
17725;SDS011;8983;53.156;17.960;2024-03-22T12:53:04;31.57;;;15.80;;
17725;SDS011;8983;53.156;17.960;2024-03-22T12:55:31;24.50;;;14.13;;
17725;SDS011;8983;53.156;17.960;2024-03-22T12:57:58;28.97;;;14.77;;
17725;SDS011;8983;53.156;17.960;2024-03-22T13:00:27;26.17;;;14.17;;
17725;SDS011;8983;53.156;17.960;2024-03-22T13:02:53;30.03;;;13.83;;
17725;SDS011;8983;53.156;17.960;2024-03-22T13:05:20;26.13;;;13.33;;
17725;SDS011;8983;53.156;17.960;2024-03-22T13:07:46;26.73;;;14.87;;
17725;SDS011;8983;53.156;17.960;2024-03-22T13:10:14;27.57;;;14.80;;
17725;SDS011;8983;53.156;17.960;2024-03-22T13:12:40;19.30;;;10.40;;
17725;SDS011;8983;53.156;17.960;2024-03-22T13:15:07;27.60;;;14.70;;
17725;SDS011;8983;53.156;17.960;2024-03-22T13:17:36;26.63;;;14.87;;
17725;SDS011;8983;53.156;17.960;2024-03-22T13:20:03;26.20;;;14.67;;
17725;SDS011;8983;53.156;17.960;2024-03-22T13:22:35;23.63;;;13.23;;
17725;SDS011;8983;53.156;17.960;2024-03-22T13:25:04;24.90;;;13.70;;
17725;SDS011;8983;53.156;17.960;2024-03-22T13:27:32;23.23;;;12.07;;
17725;SDS011;8983;53.156;17.960;2024-03-22T13:29:59;25.00;;;13.20;;
17725;SDS011;8983;53.156;17.960;2024-03-22T13:32:26;27.00;;;13.73;;
17725;SDS011;8983;53.156;17.960;2024-03-22T13:34:55;23.10;;;12.70;;
17725;SDS011;8983;53.156;17.960;2024-03-22T13:37:21;25.93;;;13.23;;
17725;SDS011;8983;53.156;17.960;2024-03-22T13:39:48;25.60;;;13.37;;
17725;SDS011;8983;53.156;17.960;2024-03-22T13:42:14;24.80;;;13.40;;
17725;SDS011;8983;53.156;17.960;2024-03-22T13:44:42;27.20;;;11.83;;
17725;SDS011;8983;53.156;17.960;2024-03-22T13:47:08;22.07;;;11.37;;
17725;SDS011;8983;53.156;17.960;2024-03-22T13:49:35;22.23;;;10.63;;
17725;SDS011;8983;53.156;17.960;2024-03-22T13:52:05;21.50;;;12.53;;
17725;SDS011;8983;53.156;17.960;2024-03-22T13:54:32;22.50;;;11.70;;
17725;SDS011;8983;53.156;17.960;2024-03-22T13:56:58;25.47;;;11.37;;
17725;SDS011;8983;53.156;17.960;2024-03-22T13:59:26;24.93;;;12.47;;
17725;SDS011;8983;53.156;17.960;2024-03-22T14:01:53;24.13;;;13.37;;
17725;SDS011;8983;53.156;17.960;2024-03-22T14:04:21;22.60;;;10.67;;
17725;SDS011;8983;53.156;17.960;2024-03-22T14:06:48;27.63;;;13.87;;
17725;SDS011;8983;53.156;17.960;2024-03-22T14:09:16;25.43;;;11.53;;
17725;SDS011;8983;53.156;17.960;2024-03-22T14:11:43;23.87;;;11.93;;
17725;SDS011;8983;53.156;17.960;2024-03-22T14:14:11;22.00;;;12.20;;
17725;SDS011;8983;53.156;17.960;2024-03-22T14:16:38;22.67;;;11.20;;
17725;SDS011;8983;53.156;17.960;2024-03-22T14:19:06;23.87;;;12.27;;
17725;SDS011;8983;53.156;17.960;2024-03-22T14:21:34;21.13;;;11.17;;
17725;SDS011;8983;53.156;17.960;2024-03-22T14:24:01;16.90;;;9.33;;